sensor_id;sensor_type;location;lat;lon;timestamp;P1;durP1;ratioP1;P2;durP2;ratioP2
79759;SDS011;70512;42.122;24.732;2024-02-14T00:01:12;1.67;;;1.42;;
79759;SDS011;70512;42.122;24.732;2024-02-14T00:03:40;3.62;;;1.45;;
79759;SDS011;70512;42.122;24.732;2024-02-14T00:06:08;1.85;;;1.45;;
79759;SDS011;70512;42.122;24.732;2024-02-14T00:08:37;1.82;;;1.37;;
79759;SDS011;70512;42.122;24.732;2024-02-14T00:11:05;1.57;;;1.40;;
79759;SDS011;70512;42.122;24.732;2024-02-14T00:13:32;1.47;;;1.37;;
79759;SDS011;70512;42.122;24.732;2024-02-14T00:16:00;1.50;;;1.25;;
79759;SDS011;70512;42.122;24.732;2024-02-14T00:18:28;1.92;;;1.20;;
79759;SDS011;70512;42.122;24.732;2024-02-14T00:20:56;2.15;;;1.57;;
79759;SDS011;70512;42.122;24.732;2024-02-14T00:23:24;1.40;;;1.20;;
79759;SDS011;70512;42.122;24.732;2024-02-14T00:25:51;3.27;;;1.47;;
79759;SDS011;70512;42.122;24.732;2024-02-14T00:28:19;1.45;;;1.30;;
79759;SDS011;70512;42.122;24.732;2024-02-14T00:30:48;2.90;;;1.45;;
79759;SDS011;70512;42.122;24.732;2024-02-14T00:33:16;1.32;;;1.22;;
79759;SDS011;70512;42.122;24.732;2024-02-14T00:35:45;1.50;;;1.40;;
79759;SDS011;70512;42.122;24.732;2024-02-14T00:38:13;1.32;;;1.22;;
79759;SDS011;70512;42.122;24.732;2024-02-14T00:40:41;2.33;;;1.50;;
79759;SDS011;70512;42.122;24.732;2024-02-14T00:43:08;2.08;;;1.25;;
79759;SDS011;70512;42.122;24.732;2024-02-14T00:45:36;3.70;;;1.50;;
79759;SDS011;70512;42.122;24.732;2024-02-14T00:48:04;1.40;;;1.30;;
79759;SDS011;70512;42.122;24.732;2024-02-14T00:50:33;3.02;;;1.57;;
79759;SDS011;70512;42.122;24.732;2024-02-14T00:53:00;1.67;;;1.42;;
79759;SDS011;70512;42.122;24.732;2024-02-14T00:55:28;1.40;;;1.30;;
79759;SDS011;70512;42.122;24.732;2024-02-14T00:57:55;2.98;;;2.05;;
79759;SDS011;70512;42.122;24.732;2024-02-14T01:00:23;1.50;;;1.40;;
79759;SDS011;70512;42.122;24.732;2024-02-14T01:02:51;1.57;;;1.47;;
79759;SDS011;70512;42.122;24.732;2024-02-14T01:05:19;1.87;;;1.50;;
79759;SDS011;70512;42.122;24.732;2024-02-14T01:07:46;1.55;;;1.45;;
79759;SDS011;70512;42.122;24.732;2024-02-14T01:10:14;1.40;;;1.30;;
79759;SDS011;70512;42.122;24.732;2024-02-14T01:12:42;1.62;;;1.42;;
79759;SDS011;70512;42.122;24.732;2024-02-14T01:15:10;2.37;;;1.60;;
79759;SDS011;70512;42.122;24.732;2024-02-14T01:17:37;2.33;;;1.62;;
79759;SDS011;70512;42.122;24.732;2024-02-14T01:20:05;1.82;;;1.62;;
79759;SDS011;70512;42.122;24.732;2024-02-14T01:22:34;1.30;;;1.20;;
79759;SDS011;70512;42.122;24.732;2024-02-14T01:25:03;1.72;;;1.60;;
79759;SDS011;70512;42.122;24.732;2024-02-14T01:27:32;3.17;;;1.10;;
79759;SDS011;70512;42.122;24.732;2024-02-14T01:29:59;1.50;;;1.40;;
79759;SDS011;70512;42.122;24.732;2024-02-14T01:32:27;2.37;;;1.70;;
79759;SDS011;70512;42.122;24.732;2024-02-14T01:34:55;1.35;;;1.25;;
79759;SDS011;70512;42.122;24.732;2024-02-14T01:37:23;1.52;;;1.42;;
79759;SDS011;70512;42.122;24.732;2024-02-14T01:39:51;1.70;;;1.40;;
79759;SDS011;70512;42.122;24.732;2024-02-14T01:42:18;2.08;;;1.60;;
79759;SDS011;70512;42.122;24.732;2024-02-14T01:44:46;2.35;;;1.50;;
79759;SDS011;70512;42.122;24.732;2024-02-14T01:47:14;1.90;;;1.65;;
79759;SDS011;70512;42.122;24.732;2024-02-14T01:49:41;1.47;;;1.20;;
79759;SDS011;70512;42.122;24.732;2024-02-14T01:52:10;1.50;;;1.40;;
79759;SDS011;70512;42.122;24.732;2024-02-14T01:54:38;1.37;;;1.27;;
79759;SDS011;70512;42.122;24.732;2024-02-14T01:57:06;1.80;;;1.50;;
79759;SDS011;70512;42.122;24.732;2024-02-14T01:59:37;1.70;;;1.60;;
79759;SDS011;70512;42.122;24.732;2024-02-14T02:02:05;1.67;;;1.47;;
79759;SDS011;70512;42.122;24.732;2024-02-14T02:04:35;1.77;;;1.67;;
79759;SDS011;70512;42.122;24.732;2024-02-14T02:07:03;2.35;;;1.55;;
79759;SDS011;70512;42.122;24.732;2024-02-14T02:09:31;1.37;;;1.27;;
79759;SDS011;70512;42.122;24.732;2024-02-14T02:11:59;1.70;;;1.60;;
79759;SDS011;70512;42.122;24.732;2024-02-14T02:14:27;1.70;;;1.60;;
79759;SDS011;70512;42.122;24.732;2024-02-14T02:16:55;5.12;;;1.90;;
79759;SDS011;70512;42.122;24.732;2024-02-14T02:19:23;2.30;;;1.85;;
79759;SDS011;70512;42.122;24.732;2024-02-14T02:21:51;1.62;;;1.40;;
79759;SDS011;70512;42.122;24.732;2024-02-14T02:24:19;2.60;;;1.92;;
79759;SDS011;70512;42.122;24.732;2024-02-14T02:26:46;2.58;;;1.70;;
79759;SDS011;70512;42.122;24.732;2024-02-14T02:29:14;2.37;;;1.80;;
79759;SDS011;70512;42.122;24.732;2024-02-14T02:31:42;2.77;;;2.30;;
79759;SDS011;70512;42.122;24.732;2024-02-14T02:34:09;4.20;;;1.85;;
79759;SDS011;70512;42.122;24.732;2024-02-14T02:36:37;1.90;;;1.70;;
79759;SDS011;70512;42.122;24.732;2024-02-14T02:39:05;2.22;;;2.02;;
79759;SDS011;70512;42.122;24.732;2024-02-14T02:41:33;4.75;;;2.72;;
79759;SDS011;70512;42.122;24.732;2024-02-14T02:44:01;2.40;;;1.98;;
79759;SDS011;70512;42.122;24.732;2024-02-14T02:46:30;3.65;;;2.20;;
79759;SDS011;70512;42.122;24.732;2024-02-14T02:48:58;2.47;;;2.15;;
79759;SDS011;70512;42.122;24.732;2024-02-14T02:51:25;2.27;;;2.08;;
79759;SDS011;70512;42.122;24.732;2024-02-14T02:53:54;2.42;;;2.10;;
79759;SDS011;70512;42.122;24.732;2024-02-14T02:56:22;2.50;;;1.80;;
79759;SDS011;70512;42.122;24.732;2024-02-14T02:58:51;2.30;;;2.10;;
79759;SDS011;70512;42.122;24.732;2024-02-14T03:01:19;3.10;;;2.02;;
79759;SDS011;70512;42.122;24.732;2024-02-14T03:03:48;4.45;;;2.33;;
79759;SDS011;70512;42.122;24.732;2024-02-14T03:06:16;3.27;;;2.58;;
79759;SDS011;70512;42.122;24.732;2024-02-14T03:08:44;3.25;;;2.80;;
79759;SDS011;70512;42.122;24.732;2024-02-14T03:11:11;2.58;;;2.33;;
79759;SDS011;70512;42.122;24.732;2024-02-14T03:13:41;6.83;;;3.12;;
79759;SDS011;70512;42.122;24.732;2024-02-14T03:16:10;2.65;;;2.40;;
79759;SDS011;70512;42.122;24.732;2024-02-14T03:18:37;4.55;;;2.65;;
79759;SDS011;70512;42.122;24.732;2024-02-14T03:21:05;5.60;;;2.80;;
79759;SDS011;70512;42.122;24.732;2024-02-14T03:23:33;4.10;;;3.17;;
79759;SDS011;70512;42.122;24.732;2024-02-14T03:26:00;2.77;;;2.47;;
79759;SDS011;70512;42.122;24.732;2024-02-14T03:28:30;3.70;;;2.75;;
79759;SDS011;70512;42.122;24.732;2024-02-14T03:30:57;5.55;;;3.40;;
79759;SDS011;70512;42.122;24.732;2024-02-14T03:33:25;4.62;;;3.08;;
79759;SDS011;70512;42.122;24.732;2024-02-14T03:35:54;10.23;;;7.30;;
79759;SDS011;70512;42.122;24.732;2024-02-14T03:38:25;3.55;;;3.25;;
79759;SDS011;70512;42.122;24.732;2024-02-14T03:40:53;5.55;;;3.70;;
79759;SDS011;70512;42.122;24.732;2024-02-14T03:43:21;4.90;;;3.77;;
79759;SDS011;70512;42.122;24.732;2024-02-14T03:45:49;4.60;;;3.62;;
79759;SDS011;70512;42.122;24.732;2024-02-14T03:48:22;4.55;;;3.72;;
79759;SDS011;70512;42.122;24.732;2024-02-14T03:50:49;4.72;;;3.47;;
79759;SDS011;70512;42.122;24.732;2024-02-14T03:53:17;5.37;;;3.80;;
79759;SDS011;70512;42.122;24.732;2024-02-14T03:55:45;4.78;;;3.95;;
79759;SDS011;70512;42.122;24.732;2024-02-14T03:58:12;9.08;;;4.40;;
79759;SDS011;70512;42.122;24.732;2024-02-14T04:00:42;6.80;;;3.62;;
79759;SDS011;70512;42.122;24.732;2024-02-14T04:03:13;6.72;;;4.25;;
79759;SDS011;70512;42.122;24.732;2024-02-14T04:05:41;9.40;;;4.20;;
79759;SDS011;70512;42.122;24.732;2024-02-14T04:08:08;5.90;;;4.20;;
79759;SDS011;70512;42.122;24.732;2024-02-14T04:10:36;6.30;;;4.80;;
79759;SDS011;70512;42.122;24.732;2024-02-14T04:13:04;6.67;;;5.05;;
79759;SDS011;70512;42.122;24.732;2024-02-14T04:15:32;7.15;;;4.50;;
79759;SDS011;70512;42.122;24.732;2024-02-14T04:18:00;5.30;;;4.30;;
79759;SDS011;70512;42.122;24.732;2024-02-14T04:20:29;4.85;;;4.25;;
79759;SDS011;70512;42.122;24.732;2024-02-14T04:22:57;6.78;;;4.47;;
79759;SDS011;70512;42.122;24.732;2024-02-14T04:25:24;6.58;;;4.47;;
79759;SDS011;70512;42.122;24.732;2024-02-14T04:27:52;9.83;;;4.85;;
79759;SDS011;70512;42.122;24.732;2024-02-14T04:30:20;5.42;;;4.45;;
79759;SDS011;70512;42.122;24.732;2024-02-14T04:32:47;5.08;;;4.40;;
79759;SDS011;70512;42.122;24.732;2024-02-14T04:35:15;5.58;;;4.60;;
79759;SDS011;70512;42.122;24.732;2024-02-14T04:37:43;7.15;;;4.47;;
79759;SDS011;70512;42.122;24.732;2024-02-14T04:40:12;5.30;;;4.35;;
79759;SDS011;70512;42.122;24.732;2024-02-14T04:42:40;6.15;;;4.55;;
79759;SDS011;70512;42.122;24.732;2024-02-14T04:45:08;4.85;;;3.95;;
79759;SDS011;70512;42.122;24.732;2024-02-14T04:47:35;7.60;;;4.55;;
79759;SDS011;70512;42.122;24.732;2024-02-14T04:50:03;7.12;;;4.40;;
79759;SDS011;70512;42.122;24.732;2024-02-14T04:52:31;6.22;;;3.90;;
79759;SDS011;70512;42.122;24.732;2024-02-14T04:54:59;4.83;;;4.28;;
79759;SDS011;70512;42.122;24.732;2024-02-14T04:57:27;6.33;;;3.90;;
79759;SDS011;70512;42.122;24.732;2024-02-14T04:59:54;6.55;;;4.78;;
79759;SDS011;70512;42.122;24.732;2024-02-14T05:02:22;7.95;;;4.47;;
79759;SDS011;70512;42.122;24.732;2024-02-14T05:04:50;6.10;;;4.22;;
79759;SDS011;70512;42.122;24.732;2024-02-14T05:07:18;5.72;;;4.87;;
79759;SDS011;70512;42.122;24.732;2024-02-14T05:09:45;7.22;;;5.25;;
79759;SDS011;70512;42.122;24.732;2024-02-14T05:12:15;9.13;;;5.17;;
79759;SDS011;70512;42.122;24.732;2024-02-14T05:14:42;7.62;;;5.83;;
79759;SDS011;70512;42.122;24.732;2024-02-14T05:17:10;7.85;;;6.08;;
79759;SDS011;70512;42.122;24.732;2024-02-14T05:19:38;10.70;;;5.78;;
79759;SDS011;70512;42.122;24.732;2024-02-14T05:22:07;7.28;;;5.53;;
79759;SDS011;70512;42.122;24.732;2024-02-14T05:24:35;18.17;;;7.33;;
79759;SDS011;70512;42.122;24.732;2024-02-14T05:27:04;13.05;;;6.65;;
79759;SDS011;70512;42.122;24.732;2024-02-14T05:29:31;13.60;;;8.48;;
79759;SDS011;70512;42.122;24.732;2024-02-14T05:31:59;6.87;;;5.33;;
79759;SDS011;70512;42.122;24.732;2024-02-14T05:34:27;9.03;;;5.72;;
79759;SDS011;70512;42.122;24.732;2024-02-14T05:36:54;12.90;;;6.37;;
79759;SDS011;70512;42.122;24.732;2024-02-14T05:39:22;6.75;;;5.72;;
79759;SDS011;70512;42.122;24.732;2024-02-14T05:41:50;8.65;;;5.90;;
79759;SDS011;70512;42.122;24.732;2024-02-14T05:44:20;11.83;;;6.60;;
79759;SDS011;70512;42.122;24.732;2024-02-14T05:46:48;9.58;;;6.97;;
79759;SDS011;70512;42.122;24.732;2024-02-14T05:49:16;8.48;;;6.33;;
79759;SDS011;70512;42.122;24.732;2024-02-14T05:51:44;9.00;;;5.83;;
79759;SDS011;70512;42.122;24.732;2024-02-14T05:54:11;8.18;;;6.95;;
79759;SDS011;70512;42.122;24.732;2024-02-14T05:56:39;16.37;;;7.10;;
79759;SDS011;70512;42.122;24.732;2024-02-14T05:59:07;8.93;;;6.47;;
79759;SDS011;70512;42.122;24.732;2024-02-14T06:01:35;8.45;;;6.35;;
79759;SDS011;70512;42.122;24.732;2024-02-14T06:04:03;7.87;;;5.37;;
79759;SDS011;70512;42.122;24.732;2024-02-14T06:06:31;8.35;;;5.58;;
79759;SDS011;70512;42.122;24.732;2024-02-14T06:08:58;10.68;;;5.80;;
79759;SDS011;70512;42.122;24.732;2024-02-14T06:11:26;10.23;;;5.60;;
79759;SDS011;70512;42.122;24.732;2024-02-14T06:13:54;7.58;;;6.58;;
79759;SDS011;70512;42.122;24.732;2024-02-14T06:16:21;11.43;;;7.60;;
79759;SDS011;70512;42.122;24.732;2024-02-14T06:18:49;8.60;;;6.62;;
79759;SDS011;70512;42.122;24.732;2024-02-14T06:21:17;9.98;;;6.30;;
79759;SDS011;70512;42.122;24.732;2024-02-14T06:23:45;6.83;;;5.12;;
79759;SDS011;70512;42.122;24.732;2024-02-14T06:26:12;6.97;;;5.50;;
79759;SDS011;70512;42.122;24.732;2024-02-14T06:28:40;9.00;;;5.72;;
79759;SDS011;70512;42.122;24.732;2024-02-14T06:31:08;7.95;;;5.80;;
79759;SDS011;70512;42.122;24.732;2024-02-14T06:33:35;6.78;;;5.25;;
79759;SDS011;70512;42.122;24.732;2024-02-14T06:36:03;10.95;;;6.17;;
79759;SDS011;70512;42.122;24.732;2024-02-14T06:38:31;9.18;;;5.62;;
79759;SDS011;70512;42.122;24.732;2024-02-14T06:40:59;8.20;;;6.03;;
79759;SDS011;70512;42.122;24.732;2024-02-14T06:43:27;9.93;;;5.33;;
79759;SDS011;70512;42.122;24.732;2024-02-14T06:45:55;10.35;;;6.47;;
79759;SDS011;70512;42.122;24.732;2024-02-14T06:48:23;9.70;;;5.72;;
79759;SDS011;70512;42.122;24.732;2024-02-14T06:50:51;11.25;;;6.42;;
79759;SDS011;70512;42.122;24.732;2024-02-14T06:53:18;6.90;;;5.50;;
79759;SDS011;70512;42.122;24.732;2024-02-14T06:55:46;11.53;;;7.40;;
79759;SDS011;70512;42.122;24.732;2024-02-14T06:58:14;8.73;;;5.80;;
79759;SDS011;70512;42.122;24.732;2024-02-14T07:00:41;9.10;;;5.92;;
79759;SDS011;70512;42.122;24.732;2024-02-14T07:03:10;13.03;;;8.93;;
79759;SDS011;70512;42.122;24.732;2024-02-14T07:05:37;8.40;;;5.33;;
79759;SDS011;70512;42.122;24.732;2024-02-14T07:08:05;10.75;;;6.53;;
79759;SDS011;70512;42.122;24.732;2024-02-14T07:10:33;8.43;;;6.25;;
79759;SDS011;70512;42.122;24.732;2024-02-14T07:13:01;12.75;;;6.22;;
79759;SDS011;70512;42.122;24.732;2024-02-14T07:15:29;8.05;;;6.30;;
79759;SDS011;70512;42.122;24.732;2024-02-14T07:17:56;10.90;;;7.08;;
79759;SDS011;70512;42.122;24.732;2024-02-14T07:20:24;13.48;;;7.78;;
79759;SDS011;70512;42.122;24.732;2024-02-14T07:22:52;11.57;;;6.37;;
79759;SDS011;70512;42.122;24.732;2024-02-14T07:25:22;10.32;;;6.62;;
79759;SDS011;70512;42.122;24.732;2024-02-14T07:27:49;10.20;;;7.15;;
79759;SDS011;70512;42.122;24.732;2024-02-14T07:30:17;10.00;;;7.05;;
79759;SDS011;70512;42.122;24.732;2024-02-14T07:32:45;8.93;;;6.35;;
79759;SDS011;70512;42.122;24.732;2024-02-14T07:35:12;8.78;;;7.05;;
79759;SDS011;70512;42.122;24.732;2024-02-14T07:37:40;9.85;;;7.15;;
79759;SDS011;70512;42.122;24.732;2024-02-14T07:40:09;13.03;;;7.40;;
79759;SDS011;70512;42.122;24.732;2024-02-14T07:42:37;9.83;;;7.33;;
79759;SDS011;70512;42.122;24.732;2024-02-14T07:45:05;11.38;;;7.65;;
79759;SDS011;70512;42.122;24.732;2024-02-14T07:47:32;10.63;;;6.90;;
79759;SDS011;70512;42.122;24.732;2024-02-14T07:50:00;10.63;;;7.92;;
79759;SDS011;70512;42.122;24.732;2024-02-14T07:52:28;8.45;;;6.87;;
79759;SDS011;70512;42.122;24.732;2024-02-14T07:54:57;15.98;;;12.47;;
79759;SDS011;70512;42.122;24.732;2024-02-14T07:57:25;16.52;;;8.75;;
79759;SDS011;70512;42.122;24.732;2024-02-14T07:59:53;12.33;;;6.62;;
79759;SDS011;70512;42.122;24.732;2024-02-14T08:02:21;14.00;;;7.72;;
79759;SDS011;70512;42.122;24.732;2024-02-14T08:04:48;12.63;;;7.53;;
79759;SDS011;70512;42.122;24.732;2024-02-14T08:07:16;9.40;;;6.95;;
79759;SDS011;70512;42.122;24.732;2024-02-14T08:09:44;9.05;;;6.75;;
79759;SDS011;70512;42.122;24.732;2024-02-14T08:12:11;10.60;;;6.70;;
79759;SDS011;70512;42.122;24.732;2024-02-14T08:14:39;7.58;;;6.10;;
79759;SDS011;70512;42.122;24.732;2024-02-14T08:17:07;17.27;;;6.30;;
79759;SDS011;70512;42.122;24.732;2024-02-14T08:19:35;9.90;;;6.87;;
79759;SDS011;70512;42.122;24.732;2024-02-14T08:22:03;15.45;;;7.28;;
79759;SDS011;70512;42.122;24.732;2024-02-14T08:24:31;16.15;;;7.28;;
79759;SDS011;70512;42.122;24.732;2024-02-14T08:26:59;13.90;;;7.28;;
79759;SDS011;70512;42.122;24.732;2024-02-14T08:29:27;20.32;;;8.03;;
79759;SDS011;70512;42.122;24.732;2024-02-14T08:31:54;12.88;;;7.45;;
79759;SDS011;70512;42.122;24.732;2024-02-14T08:34:22;16.50;;;8.30;;
79759;SDS011;70512;42.122;24.732;2024-02-14T08:36:50;12.40;;;7.53;;
79759;SDS011;70512;42.122;24.732;2024-02-14T08:39:18;12.18;;;7.37;;
79759;SDS011;70512;42.122;24.732;2024-02-14T08:41:45;10.72;;;8.13;;
79759;SDS011;70512;42.122;24.732;2024-02-14T08:44:13;12.65;;;9.15;;
79759;SDS011;70512;42.122;24.732;2024-02-14T08:46:41;13.22;;;8.05;;
79759;SDS011;70512;42.122;24.732;2024-02-14T08:49:10;14.28;;;7.90;;
79759;SDS011;70512;42.122;24.732;2024-02-14T08:51:38;15.60;;;8.70;;
79759;SDS011;70512;42.122;24.732;2024-02-14T08:54:06;13.15;;;7.78;;
79759;SDS011;70512;42.122;24.732;2024-02-14T08:56:34;11.10;;;7.75;;
79759;SDS011;70512;42.122;24.732;2024-02-14T08:59:03;11.20;;;8.73;;
79759;SDS011;70512;42.122;24.732;2024-02-14T09:01:32;11.48;;;7.80;;
79759;SDS011;70512;42.122;24.732;2024-02-14T09:04:02;13.88;;;8.13;;
79759;SDS011;70512;42.122;24.732;2024-02-14T09:06:29;15.00;;;8.05;;
79759;SDS011;70512;42.122;24.732;2024-02-14T09:09:01;13.03;;;9.63;;
79759;SDS011;70512;42.122;24.732;2024-02-14T09:11:29;18.53;;;10.00;;
79759;SDS011;70512;42.122;24.732;2024-02-14T09:13:57;15.70;;;9.93;;
79759;SDS011;70512;42.122;24.732;2024-02-14T09:16:27;17.37;;;9.68;;
79759;SDS011;70512;42.122;24.732;2024-02-14T09:18:54;13.13;;;9.00;;
79759;SDS011;70512;42.122;24.732;2024-02-14T09:21:22;14.28;;;10.68;;
79759;SDS011;70512;42.122;24.732;2024-02-14T09:23:50;17.52;;;10.82;;
79759;SDS011;70512;42.122;24.732;2024-02-14T09:26:17;22.50;;;10.28;;
79759;SDS011;70512;42.122;24.732;2024-02-14T09:28:45;17.90;;;10.10;;
79759;SDS011;70512;42.122;24.732;2024-02-14T09:31:17;11.43;;;8.90;;
79759;SDS011;70512;42.122;24.732;2024-02-14T09:33:51;21.77;;;10.15;;
79759;SDS011;70512;42.122;24.732;2024-02-14T09:36:15;16.30;;;10.15;;
79759;SDS011;70512;42.122;24.732;2024-02-14T09:38:43;14.83;;;10.35;;
79759;SDS011;70512;42.122;24.732;2024-02-14T09:41:29;22.00;;;13.55;;
79759;SDS011;70512;42.122;24.732;2024-02-14T09:46:20;18.17;;;12.07;;
79759;SDS011;70512;42.122;24.732;2024-02-14T09:48:55;16.42;;;10.85;;
79759;SDS011;70512;42.122;24.732;2024-02-14T09:51:25;23.35;;;12.63;;
79759;SDS011;70512;42.122;24.732;2024-02-14T09:53:53;18.07;;;12.35;;
79759;SDS011;70512;42.122;24.732;2024-02-14T09:56:21;14.45;;;11.10;;
79759;SDS011;70512;42.122;24.732;2024-02-14T09:58:49;16.20;;;11.12;;
79759;SDS011;70512;42.122;24.732;2024-02-14T10:01:19;15.70;;;12.18;;
79759;SDS011;70512;42.122;24.732;2024-02-14T10:03:48;13.58;;;10.03;;
79759;SDS011;70512;42.122;24.732;2024-02-14T10:06:17;21.95;;;11.57;;
79759;SDS011;70512;42.122;24.732;2024-02-14T10:08:49;18.20;;;11.30;;
79759;SDS011;70512;42.122;24.732;2024-02-14T10:11:17;15.85;;;11.78;;
79759;SDS011;70512;42.122;24.732;2024-02-14T10:13:47;19.82;;;12.82;;
79759;SDS011;70512;42.122;24.732;2024-02-14T10:16:16;22.65;;;15.88;;
79759;SDS011;70512;42.122;24.732;2024-02-14T10:18:47;17.70;;;11.03;;
79759;SDS011;70512;42.122;24.732;2024-02-14T10:21:16;17.27;;;10.32;;
79759;SDS011;70512;42.122;24.732;2024-02-14T10:23:45;19.17;;;13.18;;
79759;SDS011;70512;42.122;24.732;2024-02-14T10:26:13;15.13;;;9.70;;
79759;SDS011;70512;42.122;24.732;2024-02-14T10:28:42;15.68;;;11.10;;
79759;SDS011;70512;42.122;24.732;2024-02-14T10:31:10;15.53;;;9.28;;
79759;SDS011;70512;42.122;24.732;2024-02-14T10:33:38;19.32;;;11.22;;
79759;SDS011;70512;42.122;24.732;2024-02-14T10:36:12;14.18;;;9.03;;
79759;SDS011;70512;42.122;24.732;2024-02-14T10:38:40;13.90;;;10.03;;
79759;SDS011;70512;42.122;24.732;2024-02-14T10:41:11;9.80;;;8.40;;
79759;SDS011;70512;42.122;24.732;2024-02-14T10:43:41;15.32;;;8.95;;
79759;SDS011;70512;42.122;24.732;2024-02-14T10:46:20;14.58;;;9.25;;
79759;SDS011;70512;42.122;24.732;2024-02-14T10:48:58;11.03;;;8.18;;
79759;SDS011;70512;42.122;24.732;2024-02-14T10:51:25;11.55;;;8.10;;
79759;SDS011;70512;42.122;24.732;2024-02-14T10:53:56;9.53;;;7.40;;
79759;SDS011;70512;42.122;24.732;2024-02-14T10:56:28;12.05;;;8.18;;
79759;SDS011;70512;42.122;24.732;2024-02-14T10:58:56;10.78;;;8.00;;
79759;SDS011;70512;42.122;24.732;2024-02-14T11:01:27;13.65;;;8.53;;
79759;SDS011;70512;42.122;24.732;2024-02-14T11:04:00;13.18;;;7.87;;
79759;SDS011;70512;42.122;24.732;2024-02-14T11:06:30;9.60;;;7.28;;
79759;SDS011;70512;42.122;24.732;2024-02-14T11:09:03;9.75;;;6.90;;
79759;SDS011;70512;42.122;24.732;2024-02-14T11:11:38;10.25;;;7.78;;
79759;SDS011;70512;42.122;24.732;2024-02-14T11:14:06;9.40;;;6.53;;
79759;SDS011;70512;42.122;24.732;2024-02-14T11:16:34;8.10;;;6.37;;
79759;SDS011;70512;42.122;24.732;2024-02-14T11:19:10;7.08;;;6.08;;
79759;SDS011;70512;42.122;24.732;2024-02-14T11:21:46;12.03;;;6.35;;
79759;SDS011;70512;42.122;24.732;2024-02-14T11:24:12;8.33;;;6.08;;
79759;SDS011;70512;42.122;24.732;2024-02-14T11:26:50;7.08;;;6.12;;
79759;SDS011;70512;42.122;24.732;2024-02-14T11:29:18;8.53;;;6.75;;
79759;SDS011;70512;42.122;24.732;2024-02-14T11:31:47;13.05;;;6.33;;
79759;SDS011;70512;42.122;24.732;2024-02-14T11:34:16;9.75;;;7.33;;
79759;SDS011;70512;42.122;24.732;2024-02-14T11:36:44;10.78;;;6.87;;
79759;SDS011;70512;42.122;24.732;2024-02-14T11:39:12;10.15;;;6.65;;
79759;SDS011;70512;42.122;24.732;2024-02-14T11:41:40;12.70;;;6.25;;
79759;SDS011;70512;42.122;24.732;2024-02-14T11:44:10;29.90;;;7.65;;
79759;SDS011;70512;42.122;24.732;2024-02-14T11:46:38;12.28;;;7.20;;
79759;SDS011;70512;42.122;24.732;2024-02-14T11:49:07;31.42;;;9.45;;
79759;SDS011;70512;42.122;24.732;2024-02-14T11:51:35;12.68;;;6.70;;
79759;SDS011;70512;42.122;24.732;2024-02-14T11:54:04;13.62;;;7.33;;
79759;SDS011;70512;42.122;24.732;2024-02-14T11:56:33;12.50;;;7.35;;
79759;SDS011;70512;42.122;24.732;2024-02-14T11:59:02;11.40;;;6.78;;
79759;SDS011;70512;42.122;24.732;2024-02-14T12:01:31;17.10;;;8.35;;
79759;SDS011;70512;42.122;24.732;2024-02-14T12:04:06;8.35;;;6.62;;
79759;SDS011;70512;42.122;24.732;2024-02-14T12:06:38;18.00;;;6.65;;
79759;SDS011;70512;42.122;24.732;2024-02-14T12:09:09;18.57;;;7.87;;
79759;SDS011;70512;42.122;24.732;2024-02-14T12:11:41;7.35;;;5.70;;
79759;SDS011;70512;42.122;24.732;2024-02-14T12:14:12;9.50;;;6.33;;
79759;SDS011;70512;42.122;24.732;2024-02-14T12:16:40;15.48;;;6.75;;
79759;SDS011;70512;42.122;24.732;2024-02-14T12:19:17;8.58;;;6.30;;
79759;SDS011;70512;42.122;24.732;2024-02-14T12:21:44;12.43;;;6.30;;
79759;SDS011;70512;42.122;24.732;2024-02-14T12:24:14;11.88;;;5.35;;
79759;SDS011;70512;42.122;24.732;2024-02-14T12:26:42;8.00;;;6.00;;
79759;SDS011;70512;42.122;24.732;2024-02-14T12:29:12;10.90;;;6.03;;
79759;SDS011;70512;42.122;24.732;2024-02-14T12:31:40;12.07;;;6.10;;
79759;SDS011;70512;42.122;24.732;2024-02-14T12:34:10;21.05;;;7.15;;
79759;SDS011;70512;42.122;24.732;2024-02-14T12:36:38;18.87;;;6.62;;
79759;SDS011;70512;42.122;24.732;2024-02-14T12:39:06;10.82;;;7.50;;
79759;SDS011;70512;42.122;24.732;2024-02-14T12:41:35;12.13;;;8.30;;
79759;SDS011;70512;42.122;24.732;2024-02-14T12:44:04;22.62;;;8.75;;
79759;SDS011;70512;42.122;24.732;2024-02-14T12:46:32;15.55;;;8.05;;
79759;SDS011;70512;42.122;24.732;2024-02-14T12:49:02;15.70;;;8.00;;
79759;SDS011;70512;42.122;24.732;2024-02-14T12:51:29;9.48;;;7.70;;
79759;SDS011;70512;42.122;24.732;2024-02-14T12:53:57;20.15;;;9.53;;
79759;SDS011;70512;42.122;24.732;2024-02-14T12:56:25;11.35;;;7.10;;
79759;SDS011;70512;42.122;24.732;2024-02-14T12:58:52;16.30;;;7.72;;
79759;SDS011;70512;42.122;24.732;2024-02-14T13:01:20;18.20;;;7.62;;
79759;SDS011;70512;42.122;24.732;2024-02-14T13:03:48;23.75;;;6.28;;
79759;SDS011;70512;42.122;24.732;2024-02-14T13:06:16;9.50;;;5.72;;
79759;SDS011;70512;42.122;24.732;2024-02-14T13:08:43;11.97;;;6.10;;
79759;SDS011;70512;42.122;24.732;2024-02-14T13:11:11;15.03;;;6.55;;
79759;SDS011;70512;42.122;24.732;2024-02-14T13:13:40;10.95;;;6.67;;
79759;SDS011;70512;42.122;24.732;2024-02-14T13:16:09;7.92;;;6.25;;
79759;SDS011;70512;42.122;24.732;2024-02-14T13:18:36;13.08;;;5.62;;
79759;SDS011;70512;42.122;24.732;2024-02-14T13:21:05;11.15;;;4.97;;
79759;SDS011;70512;42.122;24.732;2024-02-14T13:23:33;11.18;;;5.97;;
79759;SDS011;70512;42.122;24.732;2024-02-14T13:26:00;6.83;;;5.40;;
79759;SDS011;70512;42.122;24.732;2024-02-14T13:28:29;10.70;;;5.90;;
79759;SDS011;70512;42.122;24.732;2024-02-14T13:30:57;11.05;;;6.08;;
79759;SDS011;70512;42.122;24.732;2024-02-14T13:33:24;7.12;;;5.30;;
79759;SDS011;70512;42.122;24.732;2024-02-14T13:35:52;16.23;;;6.90;;
79759;SDS011;70512;42.122;24.732;2024-02-14T13:38:20;7.80;;;6.12;;
79759;SDS011;70512;42.122;24.732;2024-02-14T13:40:48;7.70;;;6.03;;
79759;SDS011;70512;42.122;24.732;2024-02-14T13:43:16;9.03;;;6.55;;
79759;SDS011;70512;42.122;24.732;2024-02-14T13:45:44;8.58;;;6.75;;
79759;SDS011;70512;42.122;24.732;2024-02-14T13:48:14;9.68;;;6.10;;
79759;SDS011;70512;42.122;24.732;2024-02-14T13:50:42;12.15;;;7.70;;
79759;SDS011;70512;42.122;24.732;2024-02-14T13:53:09;9.90;;;5.35;;
79759;SDS011;70512;42.122;24.732;2024-02-14T13:55:37;10.85;;;5.60;;
79759;SDS011;70512;42.122;24.732;2024-02-14T13:58:05;11.05;;;6.28;;
79759;SDS011;70512;42.122;24.732;2024-02-14T14:00:34;9.65;;;5.87;;
79759;SDS011;70512;42.122;24.732;2024-02-14T14:03:02;8.63;;;6.30;;
79759;SDS011;70512;42.122;24.732;2024-02-14T14:05:30;8.30;;;6.00;;
79759;SDS011;70512;42.122;24.732;2024-02-14T14:07:58;11.15;;;5.53;;
79759;SDS011;70512;42.122;24.732;2024-02-14T14:10:26;8.45;;;5.83;;
79759;SDS011;70512;42.122;24.732;2024-02-14T14:12:54;7.78;;;5.92;;
79759;SDS011;70512;42.122;24.732;2024-02-14T14:15:22;9.28;;;5.72;;
79759;SDS011;70512;42.122;24.732;2024-02-14T14:17:52;9.53;;;6.08;;
79759;SDS011;70512;42.122;24.732;2024-02-14T14:20:19;8.98;;;6.22;;
79759;SDS011;70512;42.122;24.732;2024-02-14T14:22:47;11.70;;;6.90;;
79759;SDS011;70512;42.122;24.732;2024-02-14T14:25:15;8.00;;;4.92;;
79759;SDS011;70512;42.122;24.732;2024-02-14T14:27:43;10.15;;;6.03;;
79759;SDS011;70512;42.122;24.732;2024-02-14T14:30:11;11.90;;;5.67;;
79759;SDS011;70512;42.122;24.732;2024-02-14T14:32:39;9.23;;;6.30;;
79759;SDS011;70512;42.122;24.732;2024-02-14T14:35:07;13.80;;;7.37;;
79759;SDS011;70512;42.122;24.732;2024-02-14T14:37:38;12.30;;;6.47;;